createdAt,value
2022-08-03T00:02:25.807Z,19.10
2022-08-03T00:04:57.367Z,19.33
2022-08-03T00:07:28.520Z,19.73
2022-08-03T00:09:59.899Z,20.20
2022-08-03T00:12:31.194Z,17.20
2022-08-03T00:15:02.434Z,19.15
2022-08-03T00:17:52.740Z,19.50
2022-08-03T00:20:25.705Z,20.65
2022-08-03T00:22:57.140Z,36.67
2022-08-03T00:25:28.692Z,38.17
2022-08-03T00:28:00.391Z,41.22
2022-08-03T00:30:31.926Z,34.90
2022-08-03T00:33:04.549Z,27.90
2022-08-03T00:35:43.268Z,33.45
2022-08-03T00:38:22.812Z,43.03
2022-08-03T00:40:54.135Z,30.95
2022-08-03T00:43:29.245Z,28.67
2022-08-03T00:46:00.535Z,29.73
2022-08-03T00:48:33.680Z,28.98
2022-08-03T00:51:05.319Z,24.40
2022-08-03T00:53:38.359Z,24.00
2022-08-03T00:56:09.885Z,24.27
2022-08-03T00:58:41.570Z,26.27
2022-08-03T01:01:13.825Z,24.92
2022-08-03T01:03:45.384Z,23.75
2022-08-03T01:06:40.635Z,24.02
2022-08-03T01:09:22.195Z,29.92
2022-08-03T01:12:13.602Z,24.60
2022-08-03T01:15:03.000Z,28.15
2022-08-03T01:18:09.731Z,21.35
2022-08-03T01:20:46.514Z,25.63
2022-08-03T01:23:29.626Z,23.65
2022-08-03T01:26:12.888Z,28.33
2022-08-03T01:29:15.700Z,21.48
2022-08-03T01:32:58.848Z,20.02
2022-08-03T01:35:03.121Z,22.25
2022-08-03T01:37:43.985Z,19.67
2022-08-03T01:40:16.290Z,19.67
2022-08-03T01:42:49.869Z,22.65
2022-08-03T01:45:22.729Z,17.05
2022-08-03T01:47:55.445Z,22.57
2022-08-03T01:50:29.873Z,19.83
2022-08-03T01:53:01.979Z,22.05
2022-08-03T01:55:35.391Z,23.38
2022-08-03T01:58:09.432Z,19.83
2022-08-03T02:00:42.814Z,18.63
2022-08-03T02:03:15.999Z,21.42
2022-08-03T02:05:54.116Z,20.80
2022-08-03T02:08:37.850Z,23.13
2022-08-03T02:11:09.855Z,18.10
2022-08-03T02:13:41.590Z,19.50
2022-08-03T02:16:14.491Z,22.65
2022-08-03T02:18:47.760Z,19.00
2022-08-03T02:21:21.014Z,22.48
2022-08-03T02:26:59.161Z,20.00
2022-08-03T02:29:39.331Z,21.73
2022-08-03T02:32:19.313Z,20.20
2022-08-03T02:34:54.959Z,19.33
2022-08-03T02:37:32.907Z,18.13
2022-08-03T02:40:09.999Z,19.52
2022-08-03T02:42:42.230Z,16.90
2022-08-03T02:45:15.889Z,26.20
2022-08-03T02:50:36.745Z,19.00
2022-08-03T02:53:09.146Z,20.35
2022-08-03T02:55:45.653Z,20.23
2022-08-03T02:58:22.869Z,17.00
2022-08-03T03:00:55.741Z,18.30
2022-08-03T03:03:28.239Z,18.97
2022-08-03T03:06:05.693Z,16.88
2022-08-03T03:08:37.527Z,18.88
2022-08-03T03:11:11.804Z,15.68
2022-08-03T03:13:45.777Z,16.65
2022-08-03T03:16:18.175Z,15.30
2022-08-03T03:21:37.400Z,16.10
2022-08-03T03:24:10.092Z,14.35
2022-08-03T03:26:42.520Z,14.40
2022-08-03T03:29:14.063Z,16.90
2022-08-03T03:31:45.234Z,16.90
2022-08-03T03:34:17.254Z,14.20
2022-08-03T03:36:48.644Z,14.52
2022-08-03T03:39:22.648Z,15.50
2022-08-03T03:41:54.906Z,14.82
2022-08-03T03:44:32.767Z,14.43
2022-08-03T03:47:04.898Z,16.13
2022-08-03T03:49:36.693Z,14.02
2022-08-03T03:52:08.831Z,17.30
2022-08-03T03:54:44.534Z,14.48
2022-08-03T03:57:15.916Z,16.05
2022-08-03T03:59:47.056Z,17.35
2022-08-03T04:02:18.408Z,14.52
2022-08-03T04:05:07.714Z,14.90
2022-08-03T04:08:17.684Z,14.05
2022-08-03T04:11:02.042Z,13.77
2022-08-03T04:13:45.047Z,15.25
2022-08-03T04:16:20.687Z,12.00
2022-08-03T04:19:19.668Z,14.43
2022-08-03T04:21:57.478Z,14.90
2022-08-03T04:24:36.855Z,15.27
2022-08-03T04:27:16.290Z,15.60
2022-08-03T04:30:10.949Z,13.45
2022-08-03T04:32:45.947Z,15.55
2022-08-03T04:35:17.363Z,14.63
2022-08-03T04:37:54.079Z,13.10
2022-08-03T04:40:39.711Z,13.95
2022-08-03T04:43:13.696Z,13.40
2022-08-03T04:45:48.812Z,12.90
2022-08-03T04:48:21.578Z,12.82
2022-08-03T04:50:53.018Z,15.97
2022-08-03T04:53:24.220Z,13.55
2022-08-03T04:55:56.342Z,12.98
2022-08-03T04:58:32.575Z,14.23
2022-08-03T05:01:03.845Z,13.98
2022-08-03T05:03:35.102Z,12.57
2022-08-03T05:06:09.971Z,11.93
2022-08-03T05:08:46.915Z,12.73
2022-08-03T05:11:20.751Z,12.48
2022-08-03T05:13:51.997Z,12.88
2022-08-03T05:16:23.382Z,14.60
2022-08-03T05:18:54.696Z,14.15
2022-08-03T05:21:26.103Z,12.38
2022-08-03T05:24:17.297Z,11.13
2022-08-03T05:26:48.548Z,12.30
2022-08-03T05:29:20.482Z,11.48
2022-08-03T05:31:51.811Z,10.68
2022-08-03T05:34:42.939Z,12.88
2022-08-03T05:37:33.997Z,12.43
2022-08-03T05:40:08.272Z,10.85
2022-08-03T05:42:42.783Z,11.68
2022-08-03T05:45:17.313Z,12.55
2022-08-03T05:47:49.548Z,11.25
2022-08-03T05:50:22.190Z,12.88
2022-08-03T05:52:53.497Z,11.60
2022-08-03T05:55:24.766Z,11.77
2022-08-03T05:57:55.862Z,11.32
2022-08-03T06:00:27.990Z,12.15
2022-08-03T06:02:59.272Z,10.63
2022-08-03T06:05:32.216Z,11.38
2022-08-03T06:08:03.537Z,10.82
2022-08-03T06:10:37.864Z,13.07
2022-08-03T06:13:10.523Z,11.85
2022-08-03T06:15:41.965Z,11.00
2022-08-03T06:18:14.238Z,12.18
2022-08-03T06:20:47.067Z,12.47
2022-08-03T06:23:20.838Z,11.20
2022-08-03T06:25:52.709Z,10.98
2022-08-03T06:28:51.492Z,11.00
2022-08-03T06:31:15.497Z,11.13
2022-08-03T06:34:30.460Z,12.80
2022-08-03T06:36:37.800Z,12.10
2022-08-03T06:39:09.144Z,12.25
2022-08-03T06:41:44.740Z,10.82
2022-08-03T06:44:16.285Z,10.98
2022-08-03T06:46:47.509Z,10.30
2022-08-03T06:49:18.964Z,11.23
2022-08-03T06:52:04.538Z,11.48
2022-08-03T06:57:27.321Z,11.25
2022-08-03T07:02:48.420Z,12.10
2022-08-03T07:05:24.498Z,10.25
2022-08-03T07:08:00.716Z,12.80
2022-08-03T07:10:33.446Z,11.60
2022-08-03T07:13:04.680Z,11.17
2022-08-03T07:15:55.499Z,11.02
2022-08-03T07:18:29.968Z,12.38
2022-08-03T07:21:01.803Z,12.27
2022-08-03T07:23:33.238Z,11.55
2022-08-03T07:26:04.502Z,10.98
2022-08-03T07:28:35.957Z,12.65
2022-08-03T07:31:10.061Z,10.70
2022-08-03T07:33:42.599Z,12.48
2022-08-03T07:36:14.003Z,15.93
2022-08-03T07:38:45.433Z,20.40
2022-08-03T07:41:40.238Z,18.38
2022-08-03T07:44:13.589Z,19.15
2022-08-03T07:47:04.706Z,16.13
2022-08-03T07:49:41.029Z,15.57
2022-08-03T07:52:30.698Z,18.30
2022-08-03T07:55:23.023Z,18.80
2022-08-03T07:58:13.758Z,22.23
2022-08-03T08:00:48.773Z,31.00
2022-08-03T08:03:20.512Z,21.33
2022-08-03T08:05:52.394Z,16.05
2022-08-03T08:08:25.188Z,15.32
2022-08-03T08:10:58.185Z,15.82
2022-08-03T08:13:50.544Z,14.15
2022-08-03T08:16:21.808Z,21.60
2022-08-03T08:18:52.997Z,11.52
2022-08-03T08:21:24.384Z,16.58
2022-08-03T08:23:58.670Z,16.67
2022-08-03T08:26:30.157Z,16.10
2022-08-03T08:29:02.560Z,15.18
2022-08-03T08:31:34.799Z,14.68
2022-08-03T08:34:07.143Z,16.08
2022-08-03T08:36:41.383Z,13.00
2022-08-03T08:39:12.694Z,17.02
2022-08-03T08:41:52.991Z,11.73
2022-08-03T08:44:24.754Z,14.70
2022-08-03T08:46:58.809Z,13.73
2022-08-03T08:49:31.443Z,18.02
2022-08-03T08:52:25.407Z,12.70
2022-08-03T08:55:20.310Z,10.93
2022-08-03T08:58:21.228Z,15.52
2022-08-03T09:00:53.687Z,13.90
2022-08-03T09:03:30.222Z,11.90
2022-08-03T09:06:03.908Z,11.50
2022-08-03T09:08:37.652Z,14.15
2022-08-03T09:12:00.513Z,10.73
2022-08-03T09:14:37.131Z,13.48
2022-08-03T09:17:17.457Z,14.77
2022-08-03T09:20:10.846Z,11.30
2022-08-03T09:23:01.115Z,15.47
2022-08-03T09:25:35.248Z,11.40
2022-08-03T09:29:01.491Z,15.15
2022-08-03T09:31:10.430Z,11.20
2022-08-03T09:33:51.456Z,13.30
2022-08-03T09:36:42.060Z,13.00
2022-08-03T09:39:41.770Z,13.18
2022-08-03T09:42:18.761Z,10.02
2022-08-03T09:44:55.542Z,11.43
2022-08-03T09:47:44.971Z,12.48
2022-08-03T09:50:17.126Z,11.65
2022-08-03T09:52:52.712Z,15.15
2022-08-03T09:56:33.373Z,10.65
2022-08-03T09:58:17.902Z,11.98
2022-08-03T10:01:01.342Z,11.48
2022-08-03T10:03:46.997Z,10.52
2022-08-03T10:07:11.053Z,12.88
2022-08-03T10:09:57.478Z,12.05
2022-08-03T10:12:29.224Z,12.07
2022-08-03T10:15:00.468Z,10.35
2022-08-03T10:17:31.559Z,11.70
2022-08-03T10:20:02.763Z,14.10
2022-08-03T10:22:36.949Z,12.40
2022-08-03T10:25:19.337Z,12.75
2022-08-03T10:27:53.371Z,10.77
2022-08-03T10:30:39.329Z,12.50
2022-08-03T10:33:51.150Z,11.23
2022-08-03T10:36:18.266Z,9.65
2022-08-03T10:38:56.635Z,10.88
2022-08-03T10:41:34.006Z,11.02
2022-08-03T10:44:21.439Z,10.18
2022-08-03T10:46:53.290Z,13.40
2022-08-03T10:52:31.675Z,11.45
2022-08-03T10:55:18.981Z,11.90
2022-08-03T10:57:58.894Z,11.35
2022-08-03T11:00:31.812Z,12.57
2022-08-03T11:03:15.934Z,11.07
2022-08-03T11:05:51.335Z,10.68
2022-08-03T11:08:32.694Z,11.02
2022-08-03T11:11:22.613Z,10.57
2022-08-03T11:14:01.146Z,10.48
2022-08-03T11:16:36.507Z,10.88
2022-08-03T11:19:13.105Z,10.02
2022-08-03T11:21:53.366Z,10.52
2022-08-03T11:24:42.440Z,12.10
2022-08-03T11:27:26.497Z,12.27
2022-08-03T11:30:01.909Z,11.23
2022-08-03T11:32:46.572Z,11.27
2022-08-03T11:35:37.461Z,12.40
2022-08-03T11:38:11.115Z,10.27
2022-08-03T11:40:49.835Z,12.40
2022-08-03T11:43:35.333Z,9.15
2022-08-03T11:46:28.737Z,9.75
2022-08-03T11:49:10.955Z,12.60
2022-08-03T11:51:42.549Z,10.07
2022-08-03T11:54:13.647Z,9.57
2022-08-03T11:56:53.349Z,9.85
2022-08-03T11:59:37.184Z,10.38
2022-08-03T12:02:18.295Z,10.93
2022-08-03T12:05:14.533Z,10.70
2022-08-03T12:10:36.395Z,10.75
2022-08-03T12:14:43.925Z,10.85
2022-08-03T12:18:32.539Z,11.35
2022-08-03T12:21:12.150Z,10.15
2022-08-03T12:23:43.341Z,11.77
2022-08-03T12:26:14.632Z,13.18
2022-08-03T12:28:52.231Z,9.90
2022-08-03T12:31:23.601Z,11.43
2022-08-03T12:34:34.512Z,10.93
2022-08-03T12:37:21.871Z,12.75
2022-08-03T12:40:02.330Z,10.13
2022-08-03T12:42:39.962Z,9.32
2022-08-03T12:45:25.573Z,9.73
2022-08-03T12:47:59.680Z,11.95
2022-08-03T12:50:33.479Z,10.63
2022-08-03T12:53:08.077Z,10.80
2022-08-03T12:55:57.521Z,9.52
2022-08-03T12:58:35.783Z,9.82
2022-08-03T13:01:10.802Z,9.20
2022-08-03T13:03:50.143Z,9.80
2022-08-03T13:06:28.773Z,9.85
2022-08-03T13:09:09.930Z,10.50
2022-08-03T13:11:55.391Z,9.63
2022-08-03T13:14:33.946Z,9.40
2022-08-03T13:17:05.965Z,10.30
2022-08-03T13:19:41.528Z,10.02
2022-08-03T13:22:25.040Z,11.88
2022-08-03T13:25:02.405Z,10.40
2022-08-03T13:28:04.292Z,11.52
2022-08-03T13:30:46.721Z,12.60
2022-08-03T13:33:18.389Z,9.15
2022-08-03T13:35:49.827Z,9.70
2022-08-03T13:38:27.014Z,9.63
2022-08-03T13:40:59.167Z,10.38
2022-08-03T13:43:31.126Z,10.07
2022-08-03T13:46:02.395Z,9.88
2022-08-03T13:48:37.145Z,9.73
2022-08-03T13:51:21.788Z,9.23
2022-08-03T13:56:35.286Z,9.45
2022-08-03T13:59:07.724Z,10.55
2022-08-03T14:01:54.497Z,10.27
2022-08-03T14:04:27.491Z,9.35
2022-08-03T14:06:59.512Z,11.20
2022-08-03T14:09:32.926Z,10.65
2022-08-03T14:14:40.817Z,15.90
2022-08-03T14:17:12.596Z,12.13
2022-08-03T14:19:53.301Z,15.38
2022-08-03T14:22:26.306Z,12.90
2022-08-03T14:24:59.738Z,11.82
2022-08-03T14:27:37.081Z,13.55
2022-08-03T14:30:13.031Z,11.88
2022-08-03T14:32:49.330Z,11.80
2022-08-03T14:35:21.961Z,16.45
2022-08-03T14:37:53.533Z,11.15
2022-08-03T14:40:25.813Z,10.63
2022-08-03T14:43:19.876Z,10.60
2022-08-03T14:45:55.474Z,20.17
2022-08-03T14:50:30.417Z,9.63
2022-08-03T14:51:41.072Z,13.43
2022-08-03T14:54:52.009Z,19.73
2022-08-03T14:57:23.660Z,10.77
2022-08-03T14:59:57.523Z,13.00
2022-08-03T15:02:40.939Z,11.63
2022-08-03T15:05:33.539Z,11.88
2022-08-03T15:08:09.311Z,12.27
2022-08-03T15:10:44.922Z,10.65
2022-08-03T15:13:18.272Z,10.30
2022-08-03T15:15:54.307Z,10.77
2022-08-03T15:21:47.015Z,11.50
2022-08-03T15:24:19.557Z,16.38
2022-08-03T15:26:52.050Z,12.85
2022-08-03T15:32:15.955Z,16.25
2022-08-03T15:34:59.335Z,13.60
2022-08-03T15:37:51.149Z,11.65
2022-08-03T15:40:22.696Z,13.90
2022-08-03T15:42:56.094Z,10.32
2022-08-03T15:48:08.448Z,13.63
2022-08-03T15:50:40.078Z,14.90
2022-08-03T15:53:11.607Z,11.48
2022-08-03T15:56:06.502Z,12.80
2022-08-03T15:59:11.983Z,13.30
2022-08-03T16:02:05.914Z,17.10
2022-08-03T16:04:42.229Z,12.23
2022-08-03T16:07:15.977Z,14.40
2022-08-03T16:09:47.637Z,15.32
2022-08-03T16:12:19.808Z,16.08
2022-08-03T16:14:53.182Z,14.52
2022-08-03T16:17:26.173Z,13.23
2022-08-03T16:19:57.918Z,13.57
2022-08-03T16:22:29.489Z,13.55
2022-08-03T16:25:02.599Z,12.55
2022-08-03T16:28:03.221Z,11.65
2022-08-03T16:30:41.389Z,11.80
2022-08-03T16:33:17.213Z,13.77
2022-08-03T16:35:51.451Z,13.73
2022-08-03T16:42:00.575Z,11.95
2022-08-03T16:44:34.370Z,13.38
2022-08-03T16:47:21.813Z,14.65
2022-08-03T16:49:56.857Z,13.00
2022-08-03T16:52:31.055Z,10.45
2022-08-03T16:55:05.229Z,11.98
2022-08-03T16:58:03.756Z,14.18
2022-08-03T17:00:58.210Z,12.07
2022-08-03T17:03:42.757Z,11.35
2022-08-03T17:06:34.069Z,10.80
2022-08-03T17:09:15.262Z,11.30
2022-08-03T17:11:52.094Z,13.68
2022-08-03T17:14:31.490Z,11.32
2022-08-03T17:17:06.863Z,10.85
2022-08-03T17:19:47.139Z,13.13
2022-08-03T17:22:29.071Z,11.80
2022-08-03T17:25:39.718Z,12.65
2022-08-03T17:28:51.423Z,11.23
2022-08-03T17:34:41.431Z,12.85
2022-08-03T17:37:49.852Z,14.07
2022-08-03T17:40:12.398Z,10.85
2022-08-03T17:42:50.528Z,13.63
2022-08-03T17:45:22.863Z,12.45
2022-08-03T17:47:57.902Z,12.43
2022-08-03T17:50:43.824Z,11.80
2022-08-03T17:53:24.343Z,11.60
2022-08-03T17:56:44.414Z,11.50
2022-08-03T17:59:52.181Z,14.50
2022-08-03T18:03:03.259Z,11.85
2022-08-03T18:06:11.246Z,17.42
2022-08-03T18:08:32.735Z,13.18
2022-08-03T18:11:22.795Z,12.05
2022-08-03T18:14:35.674Z,11.55
2022-08-03T18:17:17.162Z,14.05
2022-08-03T18:20:02.104Z,11.48
2022-08-03T18:22:36.784Z,11.48
2022-08-03T18:25:13.376Z,11.65
2022-08-03T18:27:47.463Z,11.25
2022-08-03T18:30:19.098Z,10.75
2022-08-03T18:33:00.986Z,13.15
2022-08-03T18:35:53.731Z,12.88
2022-08-03T18:38:27.075Z,11.00
2022-08-03T18:40:58.562Z,11.20
2022-08-03T18:46:44.037Z,12.82
2022-08-03T18:56:25.193Z,10.38
2022-08-03T18:59:09.580Z,12.50
2022-08-03T19:01:58.332Z,11.85
2022-08-03T19:04:44.234Z,11.93
2022-08-03T19:07:23.389Z,11.80
2022-08-03T19:10:03.557Z,12.80
2022-08-03T19:12:44.814Z,12.45
2022-08-03T19:15:16.847Z,10.93
2022-08-03T19:17:58.663Z,11.13
2022-08-03T19:20:32.392Z,10.60
2022-08-03T19:23:03.671Z,11.27
2022-08-03T19:25:41.433Z,12.25
2022-08-03T19:28:12.767Z,13.25
2022-08-03T19:30:46.496Z,11.43
2022-08-03T19:33:29.985Z,12.40
2022-08-03T19:36:02.239Z,10.82
2022-08-03T19:38:35.018Z,11.48
2022-08-03T19:41:10.380Z,11.45
2022-08-03T19:43:53.462Z,13.25
2022-08-03T19:46:31.680Z,12.73
2022-08-03T19:49:14.463Z,12.77
2022-08-03T19:52:01.797Z,14.15
2022-08-03T19:54:52.760Z,10.98
2022-08-03T19:57:30.433Z,11.18
2022-08-03T20:02:53.919Z,12.38
2022-08-03T20:05:25.681Z,11.32
2022-08-03T20:08:00.741Z,10.02
2022-08-03T20:10:33.185Z,11.80
2022-08-03T20:13:05.987Z,12.07
2022-08-03T20:21:15.301Z,10.80
2022-08-03T20:24:02.799Z,11.52
2022-08-03T20:26:41.822Z,11.27
2022-08-03T20:29:15.343Z,11.27
2022-08-03T20:31:46.819Z,12.05
2022-08-03T20:34:18.379Z,13.35
2022-08-03T20:36:49.648Z,11.13
2022-08-03T20:39:21.099Z,11.52
2022-08-03T20:41:52.706Z,11.73
2022-08-03T20:44:27.395Z,11.90
2022-08-03T20:47:00.655Z,12.23
2022-08-03T20:52:18.683Z,10.73
2022-08-03T20:54:51.162Z,10.70
2022-08-03T20:57:23.521Z,10.60
2022-08-03T20:59:55.981Z,12.07
2022-08-03T21:02:29.976Z,12.43
2022-08-03T21:05:08.625Z,13.93
2022-08-03T21:08:05.391Z,10.95
2022-08-03T21:10:42.137Z,11.90
2022-08-03T21:13:00.669Z,10.82
2022-08-03T21:13:03.270Z,12.95
2022-08-03T21:13:28.951Z,12.18
2022-08-03T21:16:13.825Z,10.68
2022-08-03T21:18:51.195Z,10.48
2022-08-03T21:21:28.376Z,12.65
2022-08-03T21:24:02.437Z,10.47
2022-08-03T21:26:36.219Z,11.77
2022-08-03T21:29:08.009Z,9.75
2022-08-03T21:31:42.302Z,9.98
2022-08-03T21:34:13.586Z,11.20
2022-08-03T21:36:44.890Z,11.25
2022-08-03T21:39:17.518Z,11.65
2022-08-03T21:41:49.407Z,11.20
2022-08-03T21:44:25.130Z,12.15
2022-08-03T21:47:02.271Z,12.80
2022-08-03T21:50:07.205Z,10.32
2022-08-03T21:52:28.160Z,13.25
2022-08-03T21:55:04.962Z,11.95
2022-08-03T21:57:37.699Z,11.35
2022-08-03T22:03:15.352Z,10.15
2022-08-03T22:05:48.839Z,12.52
2022-08-03T22:08:20.367Z,11.15
2022-08-03T22:10:51.657Z,11.48
2022-08-03T22:13:44.079Z,11.80
2022-08-03T22:16:16.469Z,13.93
2022-08-03T22:18:48.641Z,12.38
2022-08-03T22:21:27.575Z,11.50
2022-08-03T22:24:01.959Z,14.70
2022-08-03T22:26:35.531Z,12.40
2022-08-03T22:29:10.015Z,13.35
2022-08-03T22:31:58.439Z,11.80
2022-08-03T22:34:31.598Z,11.75
2022-08-03T22:37:06.700Z,12.80
2022-08-03T22:39:38.270Z,12.07
2022-08-03T22:42:10.445Z,11.63
2022-08-03T22:44:42.042Z,11.43
2022-08-03T22:47:16.142Z,11.15
2022-08-03T22:50:33.569Z,11.55
2022-08-03T22:52:47.389Z,11.27
2022-08-03T22:55:18.981Z,13.32
2022-08-03T23:00:53.120Z,13.23
2022-08-03T23:03:58.714Z,11.70
2022-08-03T23:06:28.309Z,12.73
2022-08-03T23:08:59.926Z,12.77
2022-08-03T23:11:31.355Z,11.55
2022-08-03T23:14:04.309Z,13.10
2022-08-03T23:16:40.626Z,11.90
2022-08-03T23:19:17.098Z,12.75
2022-08-03T23:22:04.094Z,10.88
2022-08-03T23:24:40.935Z,10.77
2022-08-03T23:27:12.302Z,11.15
2022-08-03T23:29:45.737Z,11.90
2022-08-03T23:32:17.769Z,11.95
2022-08-03T23:35:09.218Z,11.77
2022-08-03T23:38:04.784Z,12.30
2022-08-03T23:40:33.872Z,12.95
2022-08-03T23:43:05.854Z,11.50
2022-08-03T23:45:38.325Z,16.52
2022-08-03T23:48:09.622Z,12.38
2022-08-03T23:50:48.306Z,12.63
2022-08-03T23:53:40.199Z,12.57
2022-08-03T23:56:31.442Z,10.73
2022-08-03T23:59:16.452Z,12.95
